SBMO/MCZ METAR and TAF weather

Enter ICAO airport designator
Station Type Date Time Source
SBMO METAR 2020/01/17 14:00 UTC NOAA

SBMO 171400Z 10013KT 9999 BKN030 31/20 Q1015


Station Type Date Time Source
SBMO Decoded METAR 2020/01/17 14:00 UTC NOAA

Maceio Aeroporto , Brazil (SBMO) 09-31S 035-47W 115M
Jan 17, 2020 - 09:00 AM EST / 2020.01.17 1400 UTC
Wind: from the E (100 degrees) at 15 MPH (13 KT):0
Visibility: greater than 7 mile(s):0
Sky conditions: mostly cloudy
Temperature: 87 F (31 C)
Dew Point: 68 F (20 C)
Relative Humidity: 52%
Pressure (altimeter): 29.97 in. Hg (1015 hPa)
ob: SBMO 171400Z 10013KT 9999 BKN030 31/20 Q1015
cycle: 14

Station Type Date Time Source
SBMO TAF 2020/01/17 12:39 UTC NOAA

TAF TAF SBMO 171000Z 1712/1812 09010KT 9999 BKN025 TX31/1715Z TN23/1806Z
BECMG 1715/1717 12013KT SCT030
BECMG 1720/1722 09005KT CAVOK
RMK PEH

Example: see airport list